Time;durP1;ratioP1;P1;durP2;ratioP2;P2;SDS_P1;SDS_P2;PMS_P1;PMS_P2;Temp;Humidity;BMP_temperature;BMP_pressure;BME280_temperature;BME280_humidity;BME280_pressure;Samples;Min_cycle;Max_cycle;Signal;HPM_P1;HPM_P2
2022/03/20 00:01:05;;;;;;;143.95;85.88;;;;;;;-8.50;100.00;103701.16;5072871;28;20477;-80
2022/03/20 00:03:33;;;;;;;141.77;91.47;;;;;;;-8.69;100.00;103690.06;5075924;28;20052;-80
2022/03/20 00:06:00;;;;;;;143.88;89.68;;;;;;;-8.91;100.00;103694.50;5075957;28;20040;-80
2022/03/20 00:08:27;;;;;;;103.95;71.35;;;;;;;-8.74;100.00;103691.84;5075243;28;20109;-80
2022/03/20 00:11:01;;;;;;;102.20;72.35;;;;;;;-8.91;100.00;103691.06;5064048;28;20488;-80
2022/03/20 00:13:30;;;;;;;103.72;68.22;;;;;;;-9.05;100.00;103691.97;5076138;28;20059;-82
2022/03/20 00:15:59;;;;;;;90.70;66.30;;;;;;;-8.82;100.00;103691.88;5073142;28;20599;-80
2022/03/20 00:18:26;;;;;;;90.43;64.97;;;;;;;-9.00;100.00;103681.66;5071970;28;20113;-79
2022/03/20 00:20:55;;;;;;;82.85;64.72;;;;;;;-9.14;100.00;103684.28;5075483;28;20059;-79
2022/03/20 00:23:23;;;;;;;75.18;62.17;;;;;;;-9.02;100.00;103689.38;5075895;28;20613;-79
2022/03/20 00:25:51;;;;;;;62.10;55.45;;;;;;;-8.93;100.00;103677.31;5075709;28;20044;-80
2022/03/20 00:28:19;;;;;;;74.05;59.22;;;;;;;-9.31;100.00;103679.22;5075775;28;20114;-79
2022/03/20 00:30:48;;;;;;;64.55;55.65;;;;;;;-9.00;100.00;103681.66;5075356;28;20048;-80
2022/03/20 00:33:16;;;;;;;63.78;56.95;;;;;;;-9.13;100.00;103669.72;5074994;28;20115;-80
2022/03/20 00:35:42;;;;;;;63.42;56.88;;;;;;;-9.09;100.00;103682.56;5074542;28;20052;-80
2022/03/20 00:38:10;;;;;;;60.58;54.28;;;;;;;-9.38;100.00;103674.06;5075592;28;20049;-80
2022/03/20 00:40:37;;;;;;;60.95;54.83;;;;;;;-9.22;100.00;103674.03;5075193;28;20118;-80
2022/03/20 00:43:05;;;;;;;63.67;56.00;;;;;;;-9.38;100.00;103662.06;5071593;28;20447;-80
2022/03/20 00:45:32;;;;;;;63.25;56.58;;;;;;;-9.62;100.00;103656.97;5074400;28;20452;-79
2022/03/20 00:48:00;;;;;;;62.88;56.22;;;;;;;-9.60;100.00;103660.41;5075094;28;20056;-79
2022/03/20 00:50:28;;;;;;;680.70;241.15;;;;;;;-9.30;100.00;103672.34;5075219;28;20110;-80
2022/03/20 00:52:55;;;;;;;615.53;200.32;;;;;;;-9.68;100.00;103663.03;5075494;28;20447;-79
2022/03/20 00:55:21;;;;;;;256.20;98.68;;;;;;;-9.25;100.00;103668.03;5075263;28;20420;-79
2022/03/20 00:57:48;;;;;;;113.95;66.13;;;;;;;-9.18;100.00;103672.28;5075026;28;20110;-79
2022/03/20 01:00:16;;;;;;;64.25;57.33;;;;;;;-9.65;100.00;103664.72;5074969;28;20056;-80
2022/03/20 01:02:44;;;;;;;75.43;67.25;;;;;;;-9.40;100.00;103674.09;5074949;28;20056;-80
2022/03/20 01:05:13;;;;;;;71.88;64.25;;;;;;;-9.14;100.00;103666.25;5071933;28;20056;-78
2022/03/20 01:07:40;;;;;;;68.47;60.97;;;;;;;-9.62;100.00;103681.03;5073090;28;20048;-80
2022/03/20 01:10:08;;;;;;;64.28;57.33;;;;;;;-9.42;100.00;103669.81;5073884;28;20075;-80
2022/03/20 01:12:38;;;;;;;63.45;56.63;;;;;;;-9.49;100.00;103661.25;5074787;28;20049;-80
2022/03/20 01:15:07;;;;;;;63.42;56.65;;;;;;;-9.55;100.00;103667.28;5074657;28;20048;-79
2022/03/20 01:17:34;;;;;;;65.25;58.20;;;;;;;-9.59;100.00;103665.56;5075597;28;20451;-80
2022/03/20 01:20:00;;;;;;;119.60;69.60;;;;;;;-10.09;100.00;103663.06;5074505;28;20044;-79
2022/03/20 01:22:28;;;;;;;95.05;68.43;;;;;;;-9.39;100.00;103670.66;5074920;28;20526;-78
2022/03/20 01:24:55;;;;;;;74.05;58.92;;;;;;;-9.37;100.00;103675.81;5074642;28;20048;-82
2022/03/20 01:27:22;;;;;;;88.47;62.67;;;;;;;-9.47;100.00;103670.69;5074438;28;20041;-79
2022/03/20 01:29:49;;;;;;;94.22;65.50;;;;;;;-9.51;100.00;103666.41;5073906;28;20045;-79
2022/03/20 01:32:16;;;;;;;127.03;76.75;;;;;;;-10.18;100.00;103669.94;5074689;28;20052;-79
2022/03/20 01:34:43;;;;;;;137.50;78.13;;;;;;;-9.61;100.00;103672.44;5075061;28;20055;-80
2022/03/20 01:37:10;;;;;;;156.20;84.85;;;;;;;-9.69;100.00;103675.00;5074428;28;20048;-81
2022/03/20 01:39:38;;;;;;;141.10;79.57;;;;;;;-9.53;100.00;103677.53;5073893;28;20526;-79
2022/03/20 01:42:06;;;;;;;150.85;81.80;;;;;;;-9.39;100.00;103672.38;5073871;28;20052;-79
2022/03/20 01:47:28;;;;;;;197.13;94.97;;;;;;;-9.57;100.00;103673.28;5088073;27;20402;-80
2022/03/20 01:49:55;;;;;;;191.52;98.03;;;;;;;-9.42;100.00;103673.22;5078684;28;20469;-79
2022/03/20 01:52:24;;;;;;;178.52;92.25;;;;;;;-9.73;100.00;103670.75;5082793;28;20110;-80
2022/03/20 01:54:53;;;;;;;125.97;72.95;;;;;;;-9.83;100.00;103668.16;5084127;28;20438;-80
2022/03/20 01:57:22;;;;;;;122.22;75.13;;;;;;;-10.05;100.00;103670.78;5077414;28;20080;-79
2022/03/20 01:59:49;;;;;;;151.70;79.95;;;;;;;-9.74;100.00;103675.88;5071318;28;20475;-80
2022/03/20 02:02:16;;;;;;;162.13;89.20;;;;;;;-10.17;100.00;103671.63;5077453;28;20052;-79
2022/03/20 02:04:45;;;;;;;185.50;93.43;;;;;;;-9.57;100.00;103681.84;5076674;28;20115;-81
2022/03/20 02:07:12;;;;;;;186.68;97.38;;;;;;;-9.54;100.00;103689.56;5080305;28;20049;-79
2022/03/20 02:09:41;;;;;;;196.80;101.65;;;;;;;-9.57;100.00;103683.56;5084403;28;20051;-80
2022/03/20 02:12:10;;;;;;;183.18;94.53;;;;;;;-9.65;100.00;103669.84;5074601;28;20045;-81
2022/03/20 02:14:37;;;;;;;186.68;96.20;;;;;;;-9.35;100.00;103676.63;5077333;28;20115;-80
2022/03/20 02:17:06;;;;;;;125.97;75.85;;;;;;;-9.49;100.00;103674.13;5080617;28;20044;-80
2022/03/20 02:19:35;;;;;;;150.40;86.63;;;;;;;-9.58;100.00;103680.16;5079992;28;20067;-80
2022/03/20 02:22:04;;;;;;;136.98;83.13;;;;;;;-9.47;100.00;103678.41;5079831;28;20053;-80
2022/03/20 02:24:38;;;;;;;108.25;71.72;;;;;;;-9.74;100.00;103687.03;5074538;28;20109;-81
2022/03/20 02:27:11;;;;;;;76.45;63.65;;;;;;;-10.19;100.00;103688.78;5067423;28;20073;-79
2022/03/20 02:29:41;;;;;;;65.75;57.97;;;;;;;-10.59;100.00;103679.34;5077969;28;20124;-81
2022/03/20 02:32:12;;;;;;;63.63;56.75;;;;;;;-10.09;100.00;103681.06;5078408;28;20040;-80
2022/03/20 02:34:39;;;;;;;63.33;56.67;;;;;;;-10.01;100.00;103690.50;5078859;28;20114;-80
2022/03/20 02:37:08;;;;;;;70.15;62.45;;;;;;;-9.96;100.00;103693.06;5077422;28;20122;-80
2022/03/20 02:39:35;;;;;;;74.05;66.25;;;;;;;-10.17;100.00;103686.19;5087253;28;20048;-79
2022/03/20 02:42:04;;;;;;;70.03;62.72;;;;;;;-10.47;100.00;103687.94;5073088;28;20098;-79
2022/03/20 02:44:52;;;;;;;71.93;63.78;;;;;;;-10.11;100.00;103687.91;5081372;28;20476;-81
2022/03/20 02:47:23;;;;;;;68.43;59.38;;;;;;;-10.40;100.00;103681.09;5068727;28;20056;-81
2022/03/20 02:49:54;;;;;;;71.57;60.97;;;;;;;-10.18;100.00;103693.06;5078188;28;20053;-79
2022/03/20 02:52:24;;;;;;;81.20;65.70;;;;;;;-10.32;100.00;103683.66;5081545;28;20131;-80
2022/03/20 02:54:51;;;;;;;96.43;74.65;;;;;;;-10.08;100.00;103677.63;5083223;28;20048;-80
2022/03/20 02:57:18;;;;;;;105.55;75.93;;;;;;;-10.50;100.00;103679.34;5070402;28;20448;-79
2022/03/20 02:59:44;;;;;;;105.28;77.88;;;;;;;-10.40;100.00;103679.38;5066657;28;20198;-81
2022/03/20 03:13:18;;;;;;;61.65;55.35;;;;;;;-10.40;100.00;103689.66;5100808;27;20880;-79
2022/03/20 03:15:45;;;;;;;64.32;53.17;;;;;;;-10.28;100.00;103686.25;5090666;28;20460;-80
2022/03/20 03:18:12;;;;;;;61.05;54.40;;;;;;;-10.52;100.00;103674.22;5090457;28;20048;-79
2022/03/20 03:20:40;;;;;;;63.33;56.90;;;;;;;-10.33;100.00;103682.81;5090593;28;20048;-79
2022/03/20 03:23:06;;;;;;;66.88;56.28;;;;;;;-10.34;100.00;103682.81;5090603;28;20058;-82
2022/03/20 03:25:34;;;;;;;62.10;55.40;;;;;;;-10.58;100.00;103686.22;5090294;28;20070;-80
2022/03/20 03:28:01;;;;;;;62.42;55.92;;;;;;;-10.33;100.00;103693.09;5090041;28;20044;-80
2022/03/20 03:30:29;;;;;;;66.60;59.72;;;;;;;-10.39;100.00;103693.94;5090213;28;20565;-81
2022/03/20 03:32:57;;;;;;;67.10;59.97;;;;;;;-10.58;100.00;103701.63;5090297;28;20080;-80
2022/03/20 03:38:10;;;;;;;62.75;56.55;;;;;;;-10.52;100.00;103699.06;5089922;28;20051;-80
2022/03/20 03:40:38;;;;;;;67.20;59.22;;;;;;;-10.50;100.00;103698.19;5087642;28;20048;-80
2022/03/20 03:43:05;;;;;;;69.35;62.38;;;;;;;-10.53;100.00;103705.91;5085114;28;20041;-81
2022/03/20 03:45:33;;;;;;;65.60;59.65;;;;;;;-10.34;100.00;103711.09;5089746;28;20131;-80
2022/03/20 03:48:01;;;;;;;64.25;57.47;;;;;;;-10.45;100.00;103705.91;5090125;28;20117;-80
2022/03/20 03:50:29;;;;;;;59.00;53.17;;;;;;;-10.42;100.00;103705.94;5089314;28;20495;-79
2022/03/20 03:52:56;;;;;;;61.15;54.97;;;;;;;-10.33;100.00;103702.50;5090584;28;20075;-80
2022/03/20 03:55:23;;;;;;;65.35;57.95;;;;;;;-10.47;100.00;103711.06;5086876;28;20070;-80
2022/03/20 03:57:52;;;;;;;91.95;63.88;;;;;;;-10.67;100.00;103710.16;5083501;28;20121;-80
2022/03/20 04:00:21;;;;;;;79.85;60.28;;;;;;;-10.59;100.00;103720.44;5088119;28;20109;-79
2022/03/20 04:02:50;;;;;;;85.75;62.72;;;;;;;-10.82;100.00;103710.13;5088972;28;20546;-81
2022/03/20 04:05:17;;;;;;;82.13;62.60;;;;;;;-10.80;100.00;103710.97;5089648;28;20052;-80
2022/03/20 04:07:44;;;;;;;92.25;63.42;;;;;;;-11.11;100.00;103715.97;5090368;28;20113;-81
2022/03/20 04:10:11;;;;;;;79.53;61.58;;;;;;;-10.67;100.00;103720.44;5087063;28;20044;-80
2022/03/20 04:12:40;;;;;;;71.53;57.47;;;;;;;-10.62;100.00;103721.28;5075793;28;20121;-80
2022/03/20 04:15:08;;;;;;;79.32;60.63;;;;;;;-10.82;100.00;103718.69;5075683;28;20048;-80
2022/03/20 04:17:35;;;;;;;79.70;60.45;;;;;;;-10.54;100.00;103711.91;5075721;28;20044;-81
2022/03/20 04:20:04;;;;;;;78.63;59.92;;;;;;;-10.61;100.00;103705.03;5066779;28;20040;-80
2022/03/20 04:22:31;;;;;;;77.05;59.83;;;;;;;-10.65;100.00;103722.16;5076335;28;20041;-82
2022/03/20 04:24:58;;;;;;;78.93;59.83;;;;;;;-10.69;100.00;103723.00;5072482;28;20037;-79
2022/03/20 04:27:25;;;;;;;69.35;57.03;;;;;;;-11.15;100.00;103719.41;5070043;28;20048;-81
2022/03/20 04:29:54;;;;;;;67.75;54.95;;;;;;;-11.06;100.00;103732.28;5075780;28;20080;-80
2022/03/20 04:32:20;;;;;;;57.83;51.67;;;;;;;-11.07;100.00;103730.56;5075405;28;20051;-81
2022/03/20 04:34:48;;;;;;;57.65;51.80;;;;;;;-11.23;100.00;103726.19;5076111;28;20052;-80
2022/03/20 04:37:18;;;;;;;56.83;50.90;;;;;;;-11.01;100.00;103722.00;5075717;28;20049;-80
2022/03/20 04:39:45;;;;;;;56.70;50.53;;;;;;;-11.09;100.00;103727.97;5072481;28;20041;-80
2022/03/20 04:42:13;;;;;;;56.92;51.05;;;;;;;-10.95;100.00;103733.19;5067418;28;20051;-81
2022/03/20 04:44:40;;;;;;;61.00;54.22;;;;;;;-10.53;100.00;103735.88;5074941;28;20060;-79
2022/03/20 04:58:29;;;;;;;60.00;52.20;;;;;;;-10.61;100.00;103726.44;5074888;28;20110;-80
2022/03/20 04:58:31;;;;;;;62.92;55.55;;;;;;;-10.11;100.00;103724.78;5071456;28;20056;-80
2022/03/20 05:01:00;;;;;;;65.65;56.08;;;;;;;-9.96;100.00;103729.06;5072571;28;20044;-79
2022/03/20 05:03:27;;;;;;;69.38;58.00;;;;;;;-9.83;100.00;103737.63;5070200;28;20131;-81
2022/03/20 05:05:54;;;;;;;74.57;59.53;;;;;;;-9.71;100.00;103741.06;5075137;28;20049;-80
2022/03/20 05:08:22;;;;;;;68.93;59.75;;;;;;;-9.92;100.00;103743.66;5075669;28;20473;-80
2022/03/20 05:13:33;;;;;;;81.97;62.50;;;;;;;-9.41;100.00;103747.00;5075032;28;20052;-79
2022/03/20 05:16:00;;;;;;;72.45;61.50;;;;;;;-9.27;100.00;103742.69;5066488;28;20110;-80
2022/03/20 05:18:27;;;;;;;66.75;58.38;;;;;;;-9.13;100.00;103746.97;5074708;28;20125;-80
2022/03/20 05:20:54;;;;;;;61.17;54.22;;;;;;;-9.04;100.00;103747.78;5074720;28;20055;-82
2022/03/20 05:23:23;;;;;;;66.40;58.15;;;;;;;-9.09;100.00;103746.94;5075092;28;20060;-80
2022/03/20 05:25:50;;;;;;;63.47;55.67;;;;;;;-8.75;100.00;103759.69;5072474;28;20048;-79
2022/03/20 05:28:17;;;;;;;67.45;57.20;;;;;;;-9.00;100.00;103752.06;5074381;28;20068;-81
2022/03/20 05:30:45;;;;;;;71.30;59.53;;;;;;;-8.49;100.00;103749.25;5074108;28;20064;-80
2022/03/20 05:33:12;;;;;;;77.18;63.28;;;;;;;-8.42;100.00;103750.94;5073740;28;20477;-80
2022/03/20 05:35:40;;;;;;;89.35;65.63;;;;;;;-7.94;100.00;103755.72;5074389;28;20101;-81
2022/03/20 05:38:09;;;;;;;107.68;72.97;;;;;;;-7.89;100.00;103753.97;5074708;28;20135;-80
2022/03/20 05:40:38;;;;;;;108.80;71.72;;;;;;;-7.74;100.00;103740.09;5073321;28;20055;-80
2022/03/20 05:43:04;;;;;;;97.28;68.47;;;;;;;-7.34;100.00;103755.19;5073626;28;20048;-80
2022/03/20 05:45:32;;;;;;;124.45;79.05;;;;;;;-7.54;100.00;103751.06;5074117;28;20118;-80
2022/03/20 05:47:59;;;;;;;117.50;77.25;;;;;;;-7.42;100.00;103744.94;5073877;28;20479;-80
2022/03/20 05:50:26;;;;;;;133.65;80.60;;;;;;;-7.37;100.00;103749.19;5073454;28;20098;-81
2022/03/20 05:52:53;;;;;;;134.30;86.03;;;;;;;-7.30;100.00;103759.44;5074855;28;20439;-79
2022/03/20 05:58:01;;;;;;;136.32;85.57;;;;;;;-7.28;100.00;103748.25;5072623;28;20052;-79
2022/03/20 05:58:13;;;;;;;133.85;87.88;;;;;;;-6.55;100.00;103749.06;5069536;28;20059;-80
2022/03/20 06:00:43;;;;;;;109.38;77.43;;;;;;;-6.18;100.00;103742.50;5073716;28;20052;-79
2022/03/20 06:03:10;;;;;;;108.63;72.85;;;;;;;-6.48;100.00;103749.84;5073447;28;20052;-81
2022/03/20 06:05:38;;;;;;;68.00;60.67;;;;;;;-6.04;100.00;103749.19;5073994;28;20496;-79
2022/03/20 06:08:06;;;;;;;71.65;60.88;;;;;;;-5.96;100.00;103738.72;5072358;28;20059;-80
2022/03/20 06:10:33;;;;;;;76.38;63.25;;;;;;;-5.61;100.00;103745.84;5070575;28;20074;-79
2022/03/20 06:13:00;;;;;;;67.03;58.30;;;;;;;-5.59;100.00;103743.25;5072938;28;20136;-79
2022/03/20 06:15:28;;;;;;;69.82;59.10;;;;;;;-5.21;100.00;103750.28;5073739;28;20056;-80
2022/03/20 06:17:55;;;;;;;69.70;59.55;;;;;;;-5.19;100.00;103747.69;5072831;28;20058;-79
2022/03/20 06:20:21;;;;;;;65.20;57.28;;;;;;;-4.64;100.00;103742.22;5023614;28;20060;-80
2022/03/20 06:22:49;;;;;;;68.32;57.13;;;;;;;-4.27;100.00;103750.91;5048152;28;20136;-80
2022/03/20 06:25:16;;;;;;;60.42;54.05;;;;;;;-4.16;100.00;103752.38;5053566;28;20119;-79
2022/03/20 06:27:48;;;;;;;60.28;54.22;;;;;;;-4.28;100.00;103741.44;5053877;28;20114;-79
2022/03/20 06:30:16;;;;;;;62.08;55.80;;;;;;;-3.90;100.00;103761.31;5049606;28;20048;-80
2022/03/20 06:32:45;;;;;;;69.53;61.53;;;;;;;-3.69;100.00;103752.13;5047185;28;20049;-80
2022/03/20 06:35:13;;;;;;;64.22;57.40;;;;;;;-3.38;100.00;103740.91;5053007;28;20049;-80
2022/03/20 06:37:42;;;;;;;72.35;63.03;;;;;;;-3.32;100.00;103732.97;5054069;28;20114;-79
2022/03/20 06:40:10;;;;;;;63.22;57.10;;;;;;;-3.02;100.00;103739.06;5050749;28;20053;-80
2022/03/20 06:42:37;;;;;;;64.63;58.05;;;;;;;-2.51;100.00;103743.63;5052931;28;20060;-80
2022/03/20 06:45:08;;;;;;;71.22;63.58;;;;;;;-2.59;100.00;103736.03;5053648;28;20056;-81
2022/03/20 06:47:35;;;;;;;63.97;57.55;;;;;;;-2.19;100.00;103734.78;5053517;28;20051;-78
2022/03/20 06:50:04;;;;;;;68.00;60.75;;;;;;;-1.76;100.00;103730.78;5044332;28;20049;-80
2022/03/20 06:52:31;;;;;;;114.30;79.65;;;;;;;-1.62;100.00;103735.53;5047645;28;20441;-79
2022/03/20 06:54:59;;;;;;;71.30;63.60;;;;;;;-1.47;100.00;103734.16;5047768;28;20067;-79
2022/03/20 06:57:27;;;;;;;69.88;62.20;;;;;;;-0.96;100.00;103733.19;5053394;28;20045;-79
2022/03/20 06:59:54;;;;;;;72.32;64.65;;;;;;;-1.03;100.00;103734.28;5053485;28;20591;-80
2022/03/20 07:02:21;;;;;;;58.88;53.92;;;;;;;-0.54;100.00;103724.63;5047776;28;20037;-80
2022/03/20 07:04:48;;;;;;;58.40;53.00;;;;;;;0.51;100.00;103732.47;5050365;28;20470;-81
2022/03/20 07:07:16;;;;;;;66.40;59.65;;;;;;;0.71;100.00;103725.53;5053025;28;20059;-80
2022/03/20 07:09:43;;;;;;;59.95;54.35;;;;;;;1.21;100.00;103719.75;5053677;28;20550;-80
2022/03/20 07:12:12;;;;;;;67.00;60.40;;;;;;;-0.38;100.00;103710.03;5038373;28;20057;-78
2022/03/20 07:14:39;;;;;;;58.97;53.33;;;;;;;-0.11;100.00;103713.31;5040352;28;20470;-79
2022/03/20 07:17:07;;;;;;;69.35;61.80;;;;;;;0.35;100.00;103720.97;5044647;28;20505;-80
2022/03/20 07:19:35;;;;;;;71.55;63.78;;;;;;;0.13;100.00;103721.03;5043203;28;20141;-79
2022/03/20 07:22:02;;;;;;;73.65;65.25;;;;;;;0.66;100.00;103731.78;5048415;28;20045;-79
2022/03/20 07:24:30;;;;;;;60.38;54.92;;;;;;;1.66;98.48;103727.19;5043521;28;20053;-78
2022/03/20 07:29:41;;;;;;;61.38;55.90;;;;;;;0.98;88.73;103732.13;5039980;28;20056;-80
2022/03/20 07:32:09;;;;;;;74.60;67.20;;;;;;;0.60;85.97;103726.81;5046610;28;20045;-78
2022/03/20 07:34:38;;;;;;;59.88;54.13;;;;;;;1.79;83.71;103723.06;5051982;28;20106;-79
2022/03/20 07:37:06;;;;;;;70.25;63.85;;;;;;;1.24;78.08;103725.72;5038393;28;20077;-80
2022/03/20 07:42:13;;;;;;;60.35;54.88;;;;;;;2.88;73.01;103720.13;5084912;27;20399;-79
2022/03/20 07:44:40;;;;;;;62.28;56.88;;;;;;;2.67;67.29;103729.16;5067092;28;20045;-82
2022/03/20 07:47:08;;;;;;;127.03;93.55;;;;;;;3.49;67.84;103736.94;5071863;28;20166;-80
2022/03/20 07:49:35;;;;;;;60.63;55.45;;;;;;;3.22;63.50;103732.28;5071948;28;20056;-80
2022/03/20 07:52:02;;;;;;;120.97;91.88;;;;;;;2.52;64.46;103730.78;5072298;28;20182;-79
2022/03/20 07:54:28;;;;;;;66.00;60.10;;;;;;;3.99;65.60;103729.72;5070946;28;20465;-79
2022/03/20 07:56:55;;;;;;;104.85;81.45;;;;;;;4.17;60.87;103723.38;5070881;28;20063;-79
2022/03/20 07:59:23;;;;;;;65.57;59.47;;;;;;;4.20;60.00;103723.19;5070565;28;20098;-79
2022/03/20 08:01:50;;;;;;;75.85;68.38;;;;;;;3.86;59.94;103727.81;5063996;28;20045;-78
2022/03/20 08:04:17;;;;;;;92.70;78.38;;;;;;;3.89;62.20;103711.00;5067894;28;20077;-79
2022/03/20 08:06:44;;;;;;;65.25;59.63;;;;;;;5.86;58.25;103713.66;5068225;28;20109;-79
2022/03/20 08:09:20;;;;;;;276.65;143.38;;;;;;;3.21;53.49;103712.19;5069282;28;20123;-78
2022/03/20 08:11:47;;;;;;;194.95;109.28;;;;;;;3.74;58.10;103702.22;5067446;28;20048;-81
2022/03/20 08:14:13;;;;;;;63.80;57.70;;;;;;;6.12;53.52;103708.50;5072513;28;20771;-80
2022/03/20 08:16:41;;;;;;;58.90;53.88;;;;;;;5.47;47.99;103702.16;5071736;28;20060;-79
2022/03/20 08:19:09;;;;;;;65.35;59.22;;;;;;;5.87;46.22;103701.31;5066035;28;20064;-78
2022/03/20 08:21:36;;;;;;;58.92;54.53;;;;;;;6.04;46.91;103694.97;5070332;28;20481;-79
2022/03/20 08:24:03;;;;;;;60.40;55.88;;;;;;;5.39;46.56;103704.44;5073008;28;20052;-80
2022/03/20 08:26:31;;;;;;;60.85;56.50;;;;;;;6.03;45.53;103693.28;5066115;28;20055;-79
2022/03/20 08:28:59;;;;;;;59.28;54.75;;;;;;;5.39;46.06;103699.19;5069760;28;20053;-78
2022/03/20 08:31:26;;;;;;;60.78;56.08;;;;;;;6.09;45.79;103691.06;5066928;28;20045;-79
2022/03/20 08:33:54;;;;;;;58.33;53.72;;;;;;;6.40;43.10;103681.03;5060165;28;20115;-80
2022/03/20 08:36:21;;;;;;;270.23;129.25;;;;;;;7.15;48.21;103688.94;5071849;28;20533;-79
2022/03/20 08:38:48;;;;;;;467.55;229.45;;;;;;;8.10;43.05;103681.03;5071699;28;20369;-79
2022/03/20 08:41:15;;;;;;;62.72;56.78;;;;;;;8.18;42.48;103681.28;5067056;28;20075;-79
2022/03/20 08:43:41;;;;;;;448.95;205.77;;;;;;;6.79;42.43;103682.69;5061162;28;20042;-79
2022/03/20 08:46:08;;;;;;;352.52;165.82;;;;;;;6.67;42.51;103682.72;5072854;28;20106;-79
2022/03/20 08:48:35;;;;;;;205.48;109.18;;;;;;;6.76;46.30;103693.47;5071781;28;20049;-78
2022/03/20 08:51:03;;;;;;;66.63;60.03;;;;;;;6.71;41.36;103684.19;5071491;28;20053;-81
2022/03/20 08:53:30;;;;;;;58.17;53.67;;;;;;;7.20;41.45;103680.66;5059743;28;20049;-79
2022/03/20 08:55:57;;;;;;;58.35;54.13;;;;;;;7.97;40.33;103671.38;5046751;28;20574;-79
2022/03/20 09:01:03;;;;;;;192.10;116.35;;;;;;;9.22;39.65;103681.03;5093513;27;20405;-80
2022/03/20 09:03:30;;;;;;;63.58;57.63;;;;;;;7.84;39.17;103669.75;5059819;28;20052;-81
2022/03/20 09:05:57;;;;;;;60.45;55.42;;;;;;;7.51;38.39;103668.72;5066499;28;20136;-79
2022/03/20 09:08:23;;;;;;;78.93;70.85;;;;;;;7.85;36.46;103667.00;5063475;28;20045;-79
2022/03/20 09:10:50;;;;;;;58.85;54.28;;;;;;;8.55;37.00;103673.16;5070572;28;20045;-79
2022/03/20 09:13:17;;;;;;;278.80;153.88;;;;;;;9.02;36.78;103661.44;5063219;28;20037;-79
2022/03/20 09:15:44;;;;;;;90.90;74.22;;;;;;;9.59;40.06;103644.38;5068126;28;20453;-79
2022/03/20 09:20:56;;;;;;;142.13;103.20;;;;;;;8.76;35.92;103644.97;5060891;28;20523;-81
2022/03/20 09:23:23;;;;;;;58.30;53.90;;;;;;;8.41;34.90;103642.44;5067512;28;20071;-80
2022/03/20 09:25:52;;;;;;;57.97;53.80;;;;;;;7.58;36.50;103628.44;5066704;28;20049;-79
2022/03/20 09:28:21;;;;;;;57.50;53.40;;;;;;;7.95;37.59;103638.03;5069278;28;20166;-79
2022/03/20 09:30:48;;;;;;;61.45;56.33;;;;;;;9.13;37.82;103642.00;5060490;28;20479;-80
2022/03/20 09:33:16;;;;;;;57.60;53.10;;;;;;;8.52;37.75;103633.66;5070567;28;20048;-80
2022/03/20 09:35:44;;;;;;;62.35;57.65;;;;;;;9.40;35.01;103629.09;5058841;28;20106;-78
2022/03/20 09:38:11;;;;;;;110.82;91.05;;;;;;;9.09;38.14;103629.97;5055823;28;20041;-79
2022/03/20 09:40:39;;;;;;;70.40;63.17;;;;;;;9.96;36.27;103627.97;5064807;28;20130;-79
2022/03/20 09:43:06;;;;;;;385.33;238.50;;;;;;;9.08;38.38;103621.16;5068375;28;20520;-79
2022/03/20 09:45:34;;;;;;;740.63;376.05;;;;;;;8.58;38.92;103620.78;5070847;28;20442;-80
2022/03/20 09:48:01;;;;;;;107.43;79.90;;;;;;;10.49;38.01;103603.06;5072051;28;20045;-79
2022/03/20 09:50:30;;;;;;;59.10;53.78;;;;;;;9.79;37.53;103607.31;5073735;28;20114;-80
2022/03/20 09:52:57;;;;;;;56.92;52.72;;;;;;;9.76;35.61;103596.97;5073913;28;20529;-78
2022/03/20 09:55:24;;;;;;;61.17;55.88;;;;;;;10.31;37.38;103601.03;5071665;28;20106;-80
2022/03/20 09:57:56;;;;;;;56.90;51.97;;;;;;;7.72;44.91;103592.19;5063738;28;20057;-78
2022/03/20 10:00:24;;;;;;;58.47;53.47;;;;;;;9.76;39.74;103591.66;5067909;28;20053;-78
2022/03/20 10:02:51;;;;;;;59.40;54.72;;;;;;;12.00;35.66;103580.38;5073167;28;20640;-79
2022/03/20 10:05:21;;;;;;;118.35;85.90;;;;;;;10.51;33.00;103588.69;5070371;28;20052;-78
2022/03/20 10:07:49;;;;;;;56.03;51.60;;;;;;;10.26;33.83;103578.50;5065368;28;20540;-80
2022/03/20 10:10:17;;;;;;;58.83;54.25;;;;;;;10.49;34.19;103582.66;5064701;28;20123;-80
2022/03/20 10:12:47;;;;;;;55.60;51.60;;;;;;;11.16;36.42;103577.56;5059107;28;20054;-79
2022/03/20 10:15:28;;;;;;;62.75;57.70;;;;;;;11.52;33.13;103568.00;5060593;28;20045;-80
2022/03/20 10:18:14;;;;;;;52.33;48.55;;;;;;;10.80;34.65;103571.09;5055581;28;20132;-79
2022/03/20 10:20:44;;;;;;;52.53;48.38;;;;;;;10.99;33.63;103561.34;5059219;28;20071;-78
2022/03/20 10:23:33;;;;;;;51.90;48.17;;;;;;;10.57;33.37;103567.84;5059973;28;20480;-80
2022/03/20 10:26:00;;;;;;;56.38;52.50;;;;;;;10.07;30.72;103560.66;5057489;28;20476;-79
2022/03/20 10:28:36;;;;;;;59.85;55.03;;;;;;;10.55;30.97;103560.84;5059228;28;20542;-79
2022/03/20 10:31:05;;;;;;;57.25;53.20;;;;;;;9.54;34.16;103556.34;5057413;28;20119;-80
2022/03/20 10:33:33;;;;;;;54.67;50.78;;;;;;;10.22;33.22;103556.66;5052979;28;20041;-81
2022/03/20 10:36:20;;;;;;;56.22;52.05;;;;;;;10.16;31.63;103549.22;5058138;28;20464;-80
2022/03/20 10:38:50;;;;;;;52.78;48.60;;;;;;;10.71;30.07;103536.41;5058848;28;20052;-79
2022/03/20 10:41:23;;;;;;;58.80;54.78;;;;;;;10.23;33.25;103545.06;5057944;28;20045;-80
2022/03/20 10:43:51;;;;;;;55.00;51.17;;;;;;;9.51;32.49;103538.03;5058451;28;20087;-81
2022/03/20 10:46:20;;;;;;;54.83;50.75;;;;;;;9.78;30.65;103541.94;5058383;28;20049;-79
2022/03/20 10:48:49;;;;;;;57.92;54.03;;;;;;;9.85;33.09;103538.63;5058496;28;20056;-80
2022/03/20 10:51:26;;;;;;;58.28;53.97;;;;;;;10.18;35.37;103535.81;5057677;28;20473;-79
2022/03/20 10:53:57;;;;;;;56.65;52.25;;;;;;;9.99;32.15;103533.94;5026192;28;20115;-79
2022/03/20 10:56:23;;;;;;;55.47;51.40;;;;;;;10.17;32.99;103532.34;5038787;28;20052;-80
2022/03/20 10:58:50;;;;;;;58.45;54.20;;;;;;;10.71;29.62;103523.13;5043801;28;20054;-79
2022/03/20 11:01:18;;;;;;;53.75;49.67;;;;;;;9.69;34.26;103522.34;5046170;28;20489;-79
2022/03/20 11:03:46;;;;;;;55.78;52.17;;;;;;;10.40;31.11;103516.19;5051483;28;20140;-80
2022/03/20 11:06:13;;;;;;;56.55;52.85;;;;;;;10.29;31.42;103515.34;5050083;28;20489;-79
2022/03/20 11:08:40;;;;;;;55.95;52.17;;;;;;;9.72;29.22;103506.16;5057787;28;20099;-81
2022/03/20 11:11:11;;;;;;;55.45;51.53;;;;;;;9.51;35.42;103503.53;5048867;28;20045;-79
2022/03/20 11:13:46;;;;;;;59.88;55.58;;;;;;;9.09;35.51;103503.53;5048654;28;20048;-78
2022/03/20 11:16:14;;;;;;;51.00;47.40;;;;;;;9.75;30.63;103492.63;5045466;28;20041;-79
2022/03/20 11:18:44;;;;;;;50.53;46.47;;;;;;;9.71;34.91;103498.31;5046149;28;20057;-78
2022/03/20 11:21:11;;;;;;;50.35;46.60;;;;;;;10.30;33.81;103487.78;5050930;28;20106;-80
2022/03/20 11:23:39;;;;;;;55.30;51.42;;;;;;;9.85;29.66;103479.38;5037078;28;20049;-80
2022/03/20 11:26:11;;;;;;;52.60;48.97;;;;;;;9.55;34.64;103483.72;5045758;28;20049;-81
2022/03/20 11:28:46;;;;;;;54.10;50.40;;;;;;;9.37;31.71;103485.28;5037993;28;20122;-80
2022/03/20 11:31:14;;;;;;;53.10;49.33;;;;;;;9.95;30.80;103474.94;5022528;28;20049;-82
2022/03/20 11:33:43;;;;;;;54.30;50.50;;;;;;;10.37;29.57;103477.44;5029392;28;20053;-79
2022/03/20 11:36:11;;;;;;;53.53;49.92;;;;;;;9.19;37.69;103479.72;5022739;28;20053;-80
2022/03/20 11:38:40;;;;;;;54.47;50.55;;;;;;;10.40;29.62;103468.38;5030153;28;20132;-79
2022/03/20 11:41:16;;;;;;;58.28;53.90;;;;;;;10.95;29.58;103463.34;5028645;28;20119;-80
2022/03/20 11:43:44;;;;;;;50.72;47.13;;;;;;;10.52;32.59;103456.63;5028159;28;20129;-79
2022/03/20 11:46:21;;;;;;;53.25;49.15;;;;;;;10.43;29.35;103450.34;5037070;28;20060;-79